Time;durP1;ratioP1;P1;durP2;ratioP2;P2;SDS_P1;SDS_P2;PMS_P1;PMS_P2;Temp;Humidity;BMP_temperature;BMP_pressure;BME280_temperature;BME280_humidity;BME280_pressure;Samples;Min_cycle;Max_cycle;Signal;HPM_P1;HPM_P2
2023/08/28 00:01:15;;;;;;;5.53;4.90;;;;;;;-143.84;60.64;45049.06;5130965;27;21004;-60
2023/08/28 00:03:43;;;;;;;4.03;3.73;;;;;;;-143.84;60.98;45070.00;5130154;27;20492;-60
2023/08/28 00:06:10;;;;;;;11.93;4.57;;;;;;;-143.84;60.51;45073.81;5130634;27;21002;-60
2023/08/28 00:08:37;;;;;;;10.00;4.57;;;;;;;-143.84;60.32;45068.13;5130572;27;20434;-60
2023/08/28 00:11:05;;;;;;;4.50;3.83;;;;;;;-143.84;59.88;45070.00;5130467;27;20426;-60
2023/08/28 00:13:33;;;;;;;9.97;4.00;;;;;;;-143.84;59.67;45089.06;5130032;27;20434;-60
2023/08/28 00:16:00;;;;;;;3.90;3.60;;;;;;;-143.84;59.83;45098.56;5130539;27;20939;-60
2023/08/28 00:18:27;;;;;;;6.93;4.90;;;;;;;-143.84;59.39;45079.53;5130166;27;20469;-60
2023/08/28 00:20:56;;;;;;;4.77;4.33;;;;;;;-143.84;59.27;45071.91;5130345;27;20437;-60
2023/08/28 00:23:23;;;;;;;4.87;4.40;;;;;;;-143.84;59.50;45075.72;5130127;27;20446;-60
2023/08/28 00:25:50;;;;;;;6.13;4.80;;;;;;;-143.84;60.02;45064.31;5129927;27;20554;-60
2023/08/28 00:28:18;;;;;;;6.50;4.60;;;;;;;-143.84;60.03;45090.97;5130041;27;20465;-60
2023/08/28 00:30:46;;;;;;;4.13;3.73;;;;;;;-143.84;60.13;45060.50;5130242;27;20868;-60
2023/08/28 00:33:12;;;;;;;6.20;3.50;;;;;;;-143.84;60.24;45071.91;5130048;27;20434;-60
2023/08/28 00:35:39;;;;;;;5.90;4.67;;;;;;;-143.84;60.45;45039.53;5130265;27;20450;-60
2023/08/28 00:38:06;;;;;;;5.97;4.47;;;;;;;-143.84;60.44;45087.16;5129989;27;20441;-60
2023/08/28 00:40:33;;;;;;;5.43;4.03;;;;;;;-143.84;60.41;45066.22;5129883;27;20446;-60
2023/08/28 00:43:00;;;;;;;5.33;4.23;;;;;;;-143.84;60.81;45054.78;5129738;27;20430;-60
2023/08/28 00:45:28;;;;;;;7.63;3.67;;;;;;;-143.84;60.68;45066.22;5129757;27;20437;-60
2023/08/28 00:47:55;;;;;;;4.10;3.70;;;;;;;-143.84;60.57;45064.31;5129681;27;20503;-60
2023/08/28 00:50:23;;;;;;;5.73;3.77;;;;;;;-143.84;60.74;45045.25;5129809;27;20427;-60
2023/08/28 00:52:50;;;;;;;4.13;3.70;;;;;;;-143.84;60.37;45054.78;5129700;27;20429;-60
2023/08/28 00:55:18;;;;;;;5.00;3.70;;;;;;;-143.84;60.57;45047.16;5129852;27;20434;-60
2023/08/28 00:57:45;;;;;;;4.43;4.13;;;;;;;-143.84;60.47;45050.97;5129706;27;21298;-60
2023/08/28 01:00:13;;;;;;;4.43;4.03;;;;;;;-143.84;59.99;45062.41;5129537;27;20469;-60
2023/08/28 01:02:42;;;;;;;4.10;3.70;;;;;;;-143.84;60.20;45056.69;5129764;27;20452;-60
2023/08/28 01:05:10;;;;;;;9.70;4.37;;;;;;;-143.84;60.26;45075.72;5129415;27;20499;-60
2023/08/28 01:07:47;;;;;;;4.83;4.13;;;;;;;-143.84;60.71;45075.72;5129545;27;20498;-60
2023/08/28 01:10:22;;;;;;;7.20;4.67;;;;;;;-143.84;60.50;45062.41;5129216;27;20438;-60
2023/08/28 01:12:56;;;;;;;7.50;4.10;;;;;;;-143.84;61.35;45079.53;5130029;27;20457;-60
2023/08/28 01:15:25;;;;;;;6.83;4.87;;;;;;;-143.84;61.14;45071.91;5129482;27;20441;-60
2023/08/28 01:17:59;;;;;;;9.90;4.60;;;;;;;-143.84;61.38;45073.81;5129431;27;20856;-60
2023/08/28 01:20:29;;;;;;;6.23;4.73;;;;;;;-143.84;61.44;45071.91;5129353;27;20538;-59
2023/08/28 01:23:02;;;;;;;6.53;4.03;;;;;;;-143.84;61.97;45056.69;5129342;27;20486;-60
2023/08/28 01:25:32;;;;;;;6.57;3.90;;;;;;;-143.84;62.37;45062.41;5129054;27;20502;-59
2023/08/28 01:27:59;;;;;;;8.73;5.37;;;;;;;-143.84;62.86;45064.31;5129307;27;20446;-60
2023/08/28 01:30:27;;;;;;;4.97;4.10;;;;;;;-143.84;62.26;45079.53;5129061;27;20503;-60
2023/08/28 01:32:54;;;;;;;4.50;4.10;;;;;;;-143.84;62.66;45089.06;5129223;27;20429;-60
2023/08/28 01:35:24;;;;;;;5.70;4.10;;;;;;;-143.84;62.75;45075.72;5129094;27;20449;-59
2023/08/28 01:38:12;;;;;;;12.53;4.40;;;;;;;-143.84;63.35;45071.91;5128852;27;20441;-60
2023/08/28 01:40:46;;;;;;;9.73;4.63;;;;;;;-143.84;63.95;45073.81;5129075;27;20921;-60
2023/08/28 01:43:16;;;;;;;5.83;4.70;;;;;;;-143.84;64.21;45089.06;5129193;27;20471;-59
2023/08/28 01:45:43;;;;;;;5.60;4.70;;;;;;;-143.84;64.26;45071.91;5129518;27;20434;-60
2023/08/28 01:48:10;;;;;;;4.10;3.80;;;;;;;-143.84;63.76;45079.53;5129189;27;20434;-60
2023/08/28 01:50:37;;;;;;;7.00;3.80;;;;;;;-143.84;63.48;45052.88;5129460;27;20438;-59
2023/08/28 01:53:04;;;;;;;13.07;4.50;;;;;;;-143.84;63.77;45087.16;5129088;27;20426;-60
2023/08/28 01:56:19;;;;;;;7.53;4.60;;;;;;;-143.84;64.25;45075.72;5129173;27;20443;-60
2023/08/28 01:58:50;;;;;;;4.83;4.27;;;;;;;-143.84;64.01;45068.13;5114377;27;20538;-60
2023/08/28 02:01:17;;;;;;;6.80;4.60;;;;;;;-143.84;63.89;45056.69;5129340;27;20438;-60
2023/08/28 02:03:44;;;;;;;4.40;4.10;;;;;;;-143.84;64.26;45068.13;5129051;27;20487;-60
2023/08/28 02:06:12;;;;;;;5.07;4.67;;;;;;;-143.84;64.30;45049.06;5128958;27;20799;-60
2023/08/28 02:08:39;;;;;;;8.57;4.13;;;;;;;-143.84;64.40;45081.44;5128846;27;20522;-60
2023/08/28 02:11:07;;;;;;;6.60;5.00;;;;;;;-143.84;64.42;45140.47;5129024;27;20445;-60
2023/08/28 02:13:36;;;;;;;4.70;4.30;;;;;;;-143.84;64.10;45070.00;5131578;27;20928;-60
2023/08/28 02:16:05;;;;;;;4.60;3.93;;;;;;;-143.84;63.74;45100.47;5132600;27;20445;-60
2023/08/28 02:18:32;;;;;;;7.80;4.57;;;;;;;-143.84;63.69;45068.13;5132651;27;20438;-60
2023/08/28 02:20:59;;;;;;;10.67;4.20;;;;;;;-143.84;63.25;45075.72;5132508;27;20442;-60
2023/08/28 02:23:27;;;;;;;4.70;4.30;;;;;;;-143.84;63.03;45073.81;5132373;27;20446;-60
2023/08/28 02:25:54;;;;;;;5.97;4.40;;;;;;;-143.84;61.57;45083.34;5132411;27;20478;-60
2023/08/28 02:28:22;;;;;;;4.70;4.30;;;;;;;-143.84;62.06;45064.31;5132620;27;20449;-60
2023/08/28 02:30:49;;;;;;;4.20;3.90;;;;;;;-143.84;61.95;45079.53;5132320;27;20429;-60
2023/08/28 02:33:18;;;;;;;4.90;4.13;;;;;;;-143.84;61.74;45090.97;5132302;27;20446;-60
2023/08/28 02:35:45;;;;;;;6.83;4.40;;;;;;;-143.84;62.14;45079.53;5132632;27;20442;-60
2023/08/28 02:38:12;;;;;;;5.33;4.03;;;;;;;-143.84;62.48;45090.97;5132388;27;20492;-59
2023/08/28 02:40:40;;;;;;;3.93;3.73;;;;;;;-143.84;62.19;45087.16;5132333;27;20477;-60
2023/08/28 02:43:09;;;;;;;4.63;4.10;;;;;;;-143.84;62.00;45056.69;5132516;27;21030;-60
2023/08/28 02:45:36;;;;;;;7.10;4.30;;;;;;;-143.84;61.64;45062.41;5132198;27;20944;-59
2023/08/28 02:48:04;;;;;;;9.93;4.40;;;;;;;-143.84;61.85;45083.34;5132386;27;20430;-60
2023/08/28 02:50:35;;;;;;;13.50;4.60;;;;;;;-143.84;62.29;45077.63;5132175;27;20861;-60
2023/08/28 02:53:02;;;;;;;7.37;4.80;;;;;;;-143.84;62.86;45068.13;5132134;27;20442;-60
2023/08/28 02:55:31;;;;;;;5.20;4.70;;;;;;;-143.84;62.64;45073.81;5131755;27;20477;-60
2023/08/28 02:57:58;;;;;;;4.30;3.90;;;;;;;-143.84;62.89;45070.00;5131941;27;20479;-60
2023/08/28 03:00:25;;;;;;;5.73;4.07;;;;;;;-143.84;63.16;45075.72;5131825;27;20572;-60
2023/08/28 03:02:52;;;;;;;12.83;4.40;;;;;;;-143.84;63.10;45077.63;5131834;27;20483;-60
2023/08/28 03:05:19;;;;;;;5.30;4.63;;;;;;;-143.84;63.36;45092.88;5131612;27;20438;-60
2023/08/28 03:07:48;;;;;;;5.33;3.93;;;;;;;-143.84;63.01;45106.19;5131718;27;20441;-60
2023/08/28 03:10:15;;;;;;;10.83;4.77;;;;;;;-143.84;63.14;45052.88;5131666;27;20446;-59
2023/08/28 03:12:42;;;;;;;10.67;4.47;;;;;;;-143.84;63.65;45071.91;5131505;27;20434;-60
2023/08/28 03:15:10;;;;;;;4.70;4.30;;;;;;;-143.84;63.84;45050.97;5131564;27;20510;-59
2023/08/28 03:17:37;;;;;;;5.97;4.33;;;;;;;-143.84;63.46;45056.69;5131505;27;20430;-59
2023/08/28 03:20:04;;;;;;;5.00;4.53;;;;;;;-143.84;63.88;45073.81;5131250;27;20473;-59
2023/08/28 03:22:32;;;;;;;7.80;4.47;;;;;;;-143.84;63.72;45050.97;5131615;27;20842;-60
2023/08/28 03:25:00;;;;;;;10.07;4.07;;;;;;;-143.84;64.07;45071.91;5131242;27;20553;-60
2023/08/28 03:27:27;;;;;;;4.60;4.20;;;;;;;-143.84;63.79;45075.72;5131330;27;20441;-60
2023/08/28 03:29:54;;;;;;;10.33;4.80;;;;;;;-143.84;64.25;45079.53;5131426;27;20862;-60
2023/08/28 03:32:21;;;;;;;6.13;4.83;;;;;;;-143.84;64.19;45064.31;5131396;27;20435;-60
2023/08/28 03:34:48;;;;;;;8.03;4.73;;;;;;;-143.84;64.32;45071.91;5131056;27;20460;-60
2023/08/28 03:37:16;;;;;;;6.80;4.13;;;;;;;-143.84;64.56;45066.22;5131022;27;21248;-60
2023/08/28 03:39:43;;;;;;;4.87;4.47;;;;;;;-143.84;64.64;45075.72;5131327;27;20478;-59
2023/08/28 03:42:11;;;;;;;9.67;4.43;;;;;;;-143.84;64.97;45090.97;5131062;27;20434;-60
2023/08/28 03:44:38;;;;;;;15.77;4.40;;;;;;;-143.84;65.16;45075.72;5131206;27;20434;-59
2023/08/28 03:47:06;;;;;;;4.83;4.37;;;;;;;-143.84;65.42;45047.16;5130736;27;20446;-59
2023/08/28 03:49:33;;;;;;;5.40;3.67;;;;;;;-143.84;65.39;45079.53;5130929;27;20464;-59
2023/08/28 03:52:00;;;;;;;7.90;4.50;;;;;;;-143.84;65.11;45087.16;5130915;27;20441;-60
2023/08/28 03:54:28;;;;;;;5.27;4.83;;;;;;;-143.84;65.20;45071.91;5130853;27;20442;-60
2023/08/28 03:56:55;;;;;;;6.30;5.13;;;;;;;-143.84;65.31;45045.25;5130787;27;20473;-60
2023/08/28 03:59:24;;;;;;;8.50;3.90;;;;;;;-143.84;65.42;45073.81;5130868;27;20501;-60
2023/08/28 04:01:51;;;;;;;6.40;5.30;;;;;;;-143.84;65.83;45087.16;5130936;27;20438;-60
2023/08/28 04:04:19;;;;;;;8.10;4.40;;;;;;;-143.84;65.70;45081.44;5130668;27;21311;-60
2023/08/28 04:06:46;;;;;;;5.37;4.63;;;;;;;-143.84;65.45;45070.00;5130696;27;20442;-60
2023/08/28 04:09:14;;;;;;;9.03;4.40;;;;;;;-143.84;65.69;45075.72;5130316;27;20952;-60
2023/08/28 04:11:41;;;;;;;5.97;4.97;;;;;;;-143.84;65.27;45043.34;5130617;27;20936;-60
2023/08/28 04:14:09;;;;;;;6.63;4.23;;;;;;;-143.84;65.31;45054.78;5130512;27;20478;-60
2023/08/28 04:16:37;;;;;;;12.50;4.73;;;;;;;-143.84;64.95;45064.31;5130520;27;20494;-60
2023/08/28 04:19:05;;;;;;;6.33;5.13;;;;;;;-143.84;64.96;45050.97;5129948;27;20442;-60
2023/08/28 04:21:32;;;;;;;4.93;4.53;;;;;;;-143.84;65.44;45068.13;5130246;27;20498;-59
2023/08/28 04:23:59;;;;;;;11.50;4.93;;;;;;;-143.84;65.30;45073.81;5129856;27;20438;-60
2023/08/28 04:26:26;;;;;;;6.90;4.73;;;;;;;-143.84;64.96;45081.44;5129931;27;20481;-60
2023/08/28 04:28:54;;;;;;;5.77;3.97;;;;;;;-143.84;65.17;45071.91;5130086;27;20430;-60
2023/08/28 04:31:21;;;;;;;7.53;5.03;;;;;;;-143.84;65.28;45058.59;5130216;27;20449;-60
2023/08/28 04:33:51;;;;;;;6.70;4.40;;;;;;;-143.84;65.70;45052.88;5129995;27;20494;-60
2023/08/28 04:36:18;;;;;;;5.73;4.90;;;;;;;-143.84;64.79;45071.91;5129689;27;20445;-60
2023/08/28 04:38:45;;;;;;;9.03;5.53;;;;;;;-143.84;64.11;45056.69;5129947;27;20482;-60
2023/08/28 04:41:12;;;;;;;4.97;4.13;;;;;;;-143.84;64.10;45075.72;5129977;27;20481;-60
2023/08/28 04:43:39;;;;;;;7.90;4.30;;;;;;;-143.84;64.58;45050.97;5129853;27;20478;-60
2023/08/28 04:46:07;;;;;;;6.77;4.40;;;;;;;-143.84;63.85;45049.06;5129733;27;20442;-60
2023/08/28 04:48:34;;;;;;;5.07;4.63;;;;;;;-143.84;63.85;45039.53;5130175;27;20434;-60
2023/08/28 04:51:04;;;;;;;6.20;4.60;;;;;;;-143.84;60.97;45018.59;5129666;27;20426;-60
2023/08/28 04:53:31;;;;;;;4.80;4.43;;;;;;;-143.84;57.94;45030.03;5129691;27;20446;-60
2023/08/28 04:55:58;;;;;;;5.07;4.27;;;;;;;-143.84;54.53;45018.59;5129651;27;20434;-60
2023/08/28 04:58:26;;;;;;;5.67;4.00;;;;;;;-143.84;50.85;45010.97;5129572;27;20437;-60
2023/08/28 05:00:53;;;;;;;5.63;3.97;;;;;;;-143.84;48.14;45022.41;5129436;27;20526;-60
2023/08/28 05:03:20;;;;;;;6.47;4.10;;;;;;;-143.84;47.15;45022.41;5129573;27;20442;-60
2023/08/28 05:05:47;;;;;;;5.07;3.67;;;;;;;-143.84;45.60;45010.97;5129665;27;20839;-60
2023/08/28 05:08:16;;;;;;;7.23;3.87;;;;;;;-143.84;43.82;44984.31;5129550;27;20435;-59
2023/08/28 05:10:43;;;;;;;5.53;4.03;;;;;;;-143.84;43.44;44990.03;5129503;27;20556;-59
2023/08/28 05:13:10;;;;;;;6.80;3.80;;;;;;;-143.84;43.13;44982.41;5129301;27;20430;-60
2023/08/28 05:15:37;;;;;;;5.27;4.17;;;;;;;-143.84;41.71;44969.09;5129476;27;20494;-60
2023/08/28 05:18:05;;;;;;;9.33;3.90;;;;;;;-143.84;42.40;44974.81;5129288;27;20442;-60
2023/08/28 05:20:32;;;;;;;17.07;14.43;;;;;;;-143.84;41.70;44946.25;5129808;27;20476;-59
2023/08/28 05:22:59;;;;;;;195.23;164.57;;;;;;;-143.84;40.81;44967.19;5129901;27;20498;-59
2023/08/28 05:25:28;;;;;;;7.93;5.47;;;;;;;-143.84;40.04;44931.00;5129275;27;20474;-60
2023/08/28 05:27:55;;;;;;;11.10;3.63;;;;;;;-143.84;39.91;44919.59;5129300;27;21019;-60
2023/08/28 05:30:23;;;;;;;5.80;4.50;;;;;;;-143.84;39.72;44946.25;5129420;27;20434;-60
2023/08/28 05:32:50;;;;;;;8.27;3.70;;;;;;;-143.84;39.55;44917.69;5129551;27;20862;-61
2023/08/28 05:35:18;;;;;;;4.63;3.20;;;;;;;-143.84;38.26;44908.16;5129138;27;20434;-61
2023/08/28 05:37:45;;;;;;;7.10;3.73;;;;;;;-143.84;37.71;44927.19;5129472;27;20503;-61
2023/08/28 05:40:15;;;;;;;4.30;3.30;;;;;;;-143.84;37.40;44946.25;5129592;27;20473;-61
2023/08/28 05:42:45;;;;;;;9.03;3.47;;;;;;;-143.84;38.10;44904.34;5129167;27;20437;-61
2023/08/28 05:45:12;;;;;;;6.90;4.00;;;;;;;-143.84;37.02;44921.50;5128961;27;20434;-60
2023/08/28 05:47:40;;;;;;;6.37;3.60;;;;;;;-143.84;36.70;44873.88;5130461;27;20839;-61
2023/08/28 05:50:08;;;;;;;8.20;3.40;;;;;;;-143.84;36.53;44896.75;5133203;27;20453;-61
2023/08/28 05:52:36;;;;;;;5.67;3.37;;;;;;;-143.84;35.82;44883.41;5133260;27;20430;-60
2023/08/28 05:55:04;;;;;;;4.93;2.80;;;;;;;-143.84;35.80;44900.53;5133186;27;20442;-61
2023/08/28 05:57:31;;;;;;;5.30;3.33;;;;;;;-143.84;36.07;44915.78;5133196;27;20429;-61
2023/08/28 06:00:00;;;;;;;5.90;3.50;;;;;;;-143.84;35.99;44908.16;5132958;27;21351;-60
2023/08/28 06:02:27;;;;;;;12.40;3.20;;;;;;;-143.84;34.88;44875.78;5132754;27;20441;-60
2023/08/28 06:04:55;;;;;;;8.23;3.40;;;;;;;-143.84;34.97;44887.22;5132876;27;20914;-60
2023/08/28 06:07:22;;;;;;;6.67;4.33;;;;;;;-143.84;34.55;44858.66;5132687;27;20430;-60
2023/08/28 06:09:49;;;;;;;6.53;3.70;;;;;;;-143.84;34.28;44845.31;5132403;27;20434;-60
2023/08/28 06:12:16;;;;;;;7.27;3.57;;;;;;;-143.84;34.72;44883.41;5132563;27;20434;-61
2023/08/28 06:14:43;;;;;;;7.90;3.50;;;;;;;-143.84;34.90;44889.13;5132536;27;20824;-61
2023/08/28 06:17:12;;;;;;;4.17;3.17;;;;;;;-143.84;34.81;44860.56;5132718;27;20491;-60
2023/08/28 06:19:39;;;;;;;4.13;3.77;;;;;;;-143.84;34.14;44870.09;5132702;27;20970;-60
2023/08/28 06:22:06;;;;;;;7.43;3.83;;;;;;;-143.84;34.88;44856.75;5132585;27;20986;-61
2023/08/28 06:24:33;;;;;;;4.73;3.40;;;;;;;-143.84;34.27;44871.97;5132688;27;20538;-61
2023/08/28 06:27:00;;;;;;;7.20;3.47;;;;;;;-143.84;34.29;44860.56;5132542;27;20434;-61
2023/08/28 06:29:28;;;;;;;4.00;2.90;;;;;;;-143.84;33.57;44862.47;5132268;27;20437;-61
2023/08/28 06:31:55;;;;;;;6.80;3.80;;;;;;;-143.84;33.75;44843.44;5132751;27;20497;-61
2023/08/28 06:34:25;;;;;;;9.80;3.80;;;;;;;-143.84;34.23;44835.81;5132223;27;20438;-60
2023/08/28 06:36:52;;;;;;;14.93;3.83;;;;;;;-143.84;35.25;44843.44;5132530;27;20438;-61
2023/08/28 06:39:19;;;;;;;6.10;3.73;;;;;;;-143.84;33.83;44847.22;5132373;27;20482;-60
2023/08/28 06:41:46;;;;;;;8.80;3.70;;;;;;;-143.84;33.80;44866.28;5132294;27;20481;-60
2023/08/28 06:44:13;;;;;;;6.30;3.70;;;;;;;-143.84;33.85;44866.28;5132018;27;20506;-60
2023/08/28 06:46:41;;;;;;;7.87;4.20;;;;;;;-143.84;33.74;44868.19;5132436;27;20506;-60
2023/08/28 06:49:08;;;;;;;4.70;3.67;;;;;;;-143.84;34.00;44828.19;5132010;27;20423;-61
2023/08/28 06:51:36;;;;;;;7.90;3.80;;;;;;;-143.84;32.49;44805.34;5132335;27;20434;-61
2023/08/28 06:54:04;;;;;;;6.53;4.00;;;;;;;-143.84;31.79;44833.91;5132107;27;20441;-61
2023/08/28 06:56:31;;;;;;;10.50;4.60;;;;;;;-143.84;33.54;44820.56;5132257;27;20438;-60
2023/08/28 06:58:58;;;;;;;7.67;4.23;;;;;;;-143.84;33.83;44862.47;5131775;27;20493;-60
2023/08/28 07:01:25;;;;;;;5.40;3.37;;;;;;;-143.84;32.73;44830.09;5132078;27;20474;-60
2023/08/28 07:03:52;;;;;;;11.37;3.90;;;;;;;-143.84;33.93;44822.47;5132324;27;20907;-60
2023/08/28 07:06:19;;;;;;;5.80;3.80;;;;;;;-143.84;33.11;44852.94;5132115;27;20517;-60
2023/08/28 07:08:48;;;;;;;6.43;3.70;;;;;;;-143.84;32.38;44832.00;5131855;27;20434;-60
2023/08/28 07:11:15;;;;;;;14.37;3.70;;;;;;;-143.84;31.90;44835.81;5131683;27;20442;-60
2023/08/28 07:13:42;;;;;;;4.40;3.23;;;;;;;-143.84;31.88;44824.38;5131493;27;20442;-60
2023/08/28 07:16:09;;;;;;;3.70;3.20;;;;;;;-143.84;30.74;44797.72;5131735;27;20434;-60
2023/08/28 07:18:36;;;;;;;9.13;3.53;;;;;;;-143.84;31.72;44814.88;5131760;27;20502;-60
2023/08/28 07:21:05;;;;;;;3.93;3.50;;;;;;;-143.84;32.96;44824.38;5131512;27;20994;-60
2023/08/28 07:23:32;;;;;;;14.60;4.00;;;;;;;-143.84;33.34;44797.72;5131606;27;20446;-60
2023/08/28 07:26:02;;;;;;;4.90;3.73;;;;;;;-143.84;31.07;44805.34;5130915;27;20506;-60
2023/08/28 07:28:30;;;;;;;3.60;3.30;;;;;;;-143.84;30.45;44820.56;5131271;27;20828;-60
2023/08/28 07:30:59;;;;;;;5.87;4.73;;;;;;;-143.84;30.48;44811.06;5131664;27;20430;-60
2023/08/28 07:33:27;;;;;;;4.60;3.70;;;;;;;-143.84;30.18;44797.72;5131240;27;20433;-60
2023/08/28 07:35:54;;;;;;;5.53;3.30;;;;;;;-143.84;31.24;44807.25;5131683;27;20609;-60
2023/08/28 07:38:21;;;;;;;17.37;5.00;;;;;;;-143.84;32.53;44833.91;5131171;27;20437;-60
2023/08/28 07:40:48;;;;;;;7.17;3.67;;;;;;;-143.84;31.84;44812.97;5130855;27;20545;-60
2023/08/28 07:43:17;;;;;;;6.10;4.50;;;;;;;-143.84;32.66;44814.88;5131038;27;20441;-60
2023/08/28 07:45:44;;;;;;;4.70;3.67;;;;;;;-143.84;32.90;44832.00;5131201;27;20456;-60
2023/08/28 07:48:12;;;;;;;4.33;3.67;;;;;;;-143.84;32.71;44845.31;5130757;27;20483;-60
2023/08/28 07:50:40;;;;;;;5.53;3.40;;;;;;;-143.84;33.43;44835.81;5130928;27;20445;-60
2023/08/28 07:53:07;;;;;;;8.83;4.03;;;;;;;-143.84;32.96;44862.47;5131085;27;20869;-60
2023/08/28 07:55:34;;;;;;;4.10;3.60;;;;;;;-143.84;32.98;44828.19;5130632;27;20449;-60
2023/08/28 07:58:01;;;;;;;6.53;3.40;;;;;;;-143.84;32.71;44864.38;5130647;27;20852;-60
2023/08/28 08:00:34;;;;;;;18.23;4.03;;;;;;;-143.84;33.47;44847.22;5130582;27;20490;-60
2023/08/28 08:03:03;;;;;;;7.97;3.40;;;;;;;-143.84;33.19;44839.63;5131004;27;21011;-60
2023/08/28 08:05:31;;;;;;;7.73;3.60;;;;;;;-143.84;32.80;44862.47;5130649;27;21093;-60
2023/08/28 08:07:58;;;;;;;5.13;3.33;;;;;;;-143.84;33.48;44862.47;5130648;27;20427;-60
2023/08/28 08:10:25;;;;;;;22.30;4.00;;;;;;;-143.84;33.27;44858.66;5129735;27;20463;-60
2023/08/28 08:12:52;;;;;;;9.47;3.43;;;;;;;-143.84;33.92;44839.63;5130636;27;20434;-60
2023/08/28 08:15:19;;;;;;;5.67;3.63;;;;;;;-143.84;33.59;44847.22;5130586;27;21029;-60
2023/08/28 08:17:48;;;;;;;6.10;3.37;;;;;;;-143.84;32.80;44830.09;5130554;27;20434;-60
2023/08/28 08:20:16;;;;;;;3.97;3.67;;;;;;;-143.84;32.89;44833.91;5130273;27;20443;-60
2023/08/28 08:22:43;;;;;;;4.80;3.43;;;;;;;-143.84;33.48;44835.81;5130077;27;20499;-60
2023/08/28 08:25:11;;;;;;;3.73;3.43;;;;;;;-143.84;32.16;44832.00;5130243;27;20553;-60
2023/08/28 08:27:39;;;;;;;3.50;3.20;;;;;;;-143.84;32.70;44812.97;5130513;27;20852;-60
2023/08/28 08:30:08;;;;;;;5.43;3.40;;;;;;;-143.84;31.92;44826.28;5130302;27;20430;-60
2023/08/28 08:32:35;;;;;;;5.03;3.67;;;;;;;-143.84;31.24;44793.91;5129981;27;20442;-60
2023/08/28 08:35:05;;;;;;;5.13;3.70;;;;;;;-143.84;31.63;44790.13;5130021;27;20958;-60
2023/08/28 08:37:32;;;;;;;8.70;3.87;;;;;;;-143.84;31.58;44774.88;5129910;27;20537;-60
2023/08/28 08:40:00;;;;;;;6.33;3.50;;;;;;;-143.84;29.64;44809.16;5129899;27;20434;-60
2023/08/28 08:42:27;;;;;;;11.87;3.77;;;;;;;-143.84;30.85;44805.34;5129947;27;20474;-60
2023/08/28 08:44:55;;;;;;;8.47;3.80;;;;;;;-143.84;31.11;44826.28;5129903;27;20543;-60
2023/08/28 08:47:22;;;;;;;12.67;3.83;;;;;;;-143.84;31.41;44801.53;5129821;27;20557;-60
2023/08/28 08:49:58;;;;;;;5.97;4.00;;;;;;;-143.84;32.03;44826.28;5129936;27;20541;-60
2023/08/28 08:52:27;;;;;;;3.77;3.10;;;;;;;-143.84;30.87;44784.41;5129593;27;20437;-60
2023/08/28 08:54:58;;;;;;;10.93;3.13;;;;;;;-143.84;31.22;44805.34;5129762;27;20991;-60
2023/08/28 08:57:34;;;;;;;6.13;3.40;;;;;;;-143.84;31.93;44801.53;5129747;27;20470;-60
2023/08/28 09:00:03;;;;;;;8.40;3.37;;;;;;;-143.84;31.60;44771.06;5129795;27;20426;-60
2023/08/28 09:02:32;;;;;;;4.77;3.67;;;;;;;-143.84;31.22;44824.38;5129732;27;20584;-60
2023/08/28 09:04:59;;;;;;;3.80;3.50;;;;;;;-143.84;30.34;44801.53;5129999;27;20495;-60
2023/08/28 09:07:29;;;;;;;4.83;3.70;;;;;;;-143.84;30.84;44803.44;5129480;27;20483;-60
2023/08/28 09:09:58;;;;;;;82.80;67.20;;;;;;;-143.84;30.64;44809.16;5129793;27;20442;-60
2023/08/28 09:12:25;;;;;;;26.23;11.50;;;;;;;-143.84;31.42;44809.16;5129801;27;20541;-60
2023/08/28 09:14:52;;;;;;;8.00;5.53;;;;;;;-143.84;31.41;44801.53;5129716;27;20431;-59
2023/08/28 09:17:20;;;;;;;9.97;3.70;;;;;;;-143.84;30.16;44809.16;5129479;27;20438;-60
2023/08/28 09:19:47;;;;;;;13.80;3.90;;;;;;;-143.84;30.92;44818.66;5129499;27;20434;-60
2023/08/28 09:22:14;;;;;;;11.80;3.60;;;;;;;-143.84;30.35;44782.50;5133477;27;20925;-60
2023/08/28 09:24:43;;;;;;;5.43;3.93;;;;;;;-143.84;30.77;44788.22;5136135;27;20597;-60
2023/08/28 09:27:14;;;;;;;5.90;4.10;;;;;;;-143.84;29.54;44809.16;5136255;27;20494;-60
2023/08/28 09:29:41;;;;;;;7.03;3.60;;;;;;;-143.84;30.69;44824.38;5136283;27;21004;-60
2023/08/28 09:32:08;;;;;;;5.27;3.37;;;;;;;-143.84;30.95;44839.63;5136606;27;20835;-57
2023/08/28 09:34:39;;;;;;;15.90;3.43;;;;;;;-143.84;31.30;44849.13;5136606;27;20442;-56
2023/08/28 09:37:10;;;;;;;11.27;3.90;;;;;;;-143.84;30.10;44788.22;5137474;27;20430;-56
2023/08/28 09:39:42;;;;;;;6.93;2.77;;;;;;;-143.84;30.87;44792.00;5137665;27;21002;-56
2023/08/28 09:42:10;;;;;;;5.83;3.70;;;;;;;-143.84;29.16;44824.38;5137584;27;20477;-56
2023/08/28 09:44:37;;;;;;;7.47;3.30;;;;;;;-143.84;30.38;44828.19;5137744;27;20490;-56
2023/08/28 09:47:05;;;;;;;9.00;3.80;;;;;;;-143.84;30.58;44843.44;5138198;27;20471;-56
2023/08/28 09:49:42;;;;;;;6.33;3.90;;;;;;;-143.84;30.42;44828.19;5137687;27;20434;-56
2023/08/28 09:52:12;;;;;;;7.27;3.40;;;;;;;-143.84;29.38;44811.06;5137208;27;20434;-56
2023/08/28 09:54:39;;;;;;;3.93;3.60;;;;;;;-143.84;29.76;44799.63;5137293;27;20509;-56
2023/08/28 09:57:17;;;;;;;8.40;3.50;;;;;;;-143.84;29.67;44835.81;5137096;27;20425;-55
2023/08/28 09:59:44;;;;;;;6.00;3.50;;;;;;;-143.84;30.56;44805.34;5137107;27;20954;-55
2023/08/28 10:02:17;;;;;;;10.73;3.40;;;;;;;-143.84;30.84;44839.63;5137358;27;20552;-55
2023/08/28 10:04:45;;;;;;;10.47;4.00;;;;;;;-143.84;29.90;44828.19;5136893;27;20430;-55
2023/08/28 10:07:13;;;;;;;7.07;3.93;;;;;;;-143.84;30.47;44822.47;5137043;27;20482;-55
2023/08/28 10:09:43;;;;;;;9.03;3.60;;;;;;;-143.84;30.89;44818.66;5136871;27;20434;-55
2023/08/28 10:12:12;;;;;;;6.60;4.07;;;;;;;-143.84;29.64;44830.09;5137115;27;20483;-55
2023/08/28 10:14:41;;;;;;;9.47;3.93;;;;;;;-143.84;29.80;44818.66;5136992;27;20491;-55
2023/08/28 10:17:13;;;;;;;12.73;3.83;;;;;;;-143.84;29.89;44809.16;5137212;27;20449;-55
2023/08/28 10:19:46;;;;;;;8.60;3.70;;;;;;;-143.84;28.98;44824.38;5136779;27;20521;-55
2023/08/28 10:22:14;;;;;;;10.07;3.47;;;;;;;-143.84;28.85;44786.31;5136734;27;20974;-55
2023/08/28 10:24:42;;;;;;;7.53;3.47;;;;;;;-143.84;29.50;44803.44;5136648;27;20441;-55
2023/08/28 10:27:11;;;;;;;6.47;3.70;;;;;;;-143.84;29.85;44807.25;5136832;27;20842;-55
2023/08/28 10:29:40;;;;;;;5.00;3.13;;;;;;;-143.84;29.97;44847.22;5136350;27;20477;-55
2023/08/28 10:32:10;;;;;;;9.57;4.53;;;;;;;-143.84;30.68;44809.16;5136936;27;20792;-55
2023/08/28 10:34:39;;;;;;;10.33;4.40;;;;;;;-143.84;30.47;44820.56;5132452;27;20434;-55
2023/08/28 10:37:08;;;;;;;7.10;3.10;;;;;;;-143.84;31.41;44812.97;5132821;27;20449;-55
2023/08/28 10:39:37;;;;;;;5.13;3.40;;;;;;;-143.84;31.74;44826.28;5133402;27;20442;-55
2023/08/28 10:42:06;;;;;;;14.70;3.53;;;;;;;-143.84;31.33;44837.72;5132994;27;21192;-55
2023/08/28 10:44:34;;;;;;;3.30;3.13;;;;;;;-143.84;32.79;44843.44;5132942;27;20503;-55
2023/08/28 10:47:02;;;;;;;5.37;3.00;;;;;;;-143.84;33.79;44851.03;5133020;27;20502;-55
2023/08/28 10:49:29;;;;;;;3.50;3.20;;;;;;;-143.84;33.40;44864.38;5133142;27;20430;-55
2023/08/28 10:52:03;;;;;;;13.83;3.30;;;;;;;-143.84;33.11;44822.47;5132848;27;20437;-55
2023/08/28 10:54:37;;;;;;;3.93;3.63;;;;;;;-143.84;33.96;44852.94;5133331;27;20430;-55
2023/08/28 10:57:09;;;;;;;12.73;4.27;;;;;;;-143.84;32.13;44856.75;5133479;27;20863;-55
2023/08/28 10:59:43;;;;;;;8.60;3.70;;;;;;;-143.84;32.26;44852.94;5132808;27;20446;-55
2023/08/28 11:02:12;;;;;;;3.77;3.23;;;;;;;-143.84;31.42;44828.19;5132861;27;21155;-55
2023/08/28 11:04:40;;;;;;;6.13;3.53;;;;;;;-143.84;31.32;44830.09;5132997;27;20495;-55
2023/08/28 11:07:35;;;;;;;12.33;4.67;;;;;;;-143.84;31.68;44826.28;5133146;27;20426;-55
2023/08/28 11:10:18;;;;;;;13.10;4.00;;;;;;;-143.84;32.96;44851.03;5130118;27;20444;-55
2023/08/28 11:12:56;;;;;;;8.23;3.67;;;;;;;-143.84;32.45;44854.84;5132830;27;20450;-55
2023/08/28 11:15:31;;;;;;;5.07;3.50;;;;;;;-143.84;30.27;44830.09;5133002;27;20513;-55
2023/08/28 11:18:26;;;;;;;16.33;3.90;;;;;;;-143.84;31.24;44835.81;5132821;27;20433;-55
2023/08/28 11:20:53;;;;;;;6.80;3.70;;;;;;;-143.84;31.15;44835.81;5132160;27;20434;-55
2023/08/28 11:23:23;;;;;;;3.17;2.97;;;;;;;-143.84;31.71;44852.94;5131899;27;20995;-56